Side Lake, MN (55781)

3:57 AM CST on December 11, 2016 (GMT -0600)
Kelly Lake | | Change Station

Elev 1427 ft 47.66 °N, 93.38 °W | Updated 2 minutes ago

Mostly Cloudy
Mostly Cloudy
-10.5 °F
Feels Like -10 °F
N
0.0
Wind Variable Wind from NNW

Today
High -- | Low -- °F
--% Chance of Precip.
Yesterday
High -- | Low -- °F
Precip. -- in
Pressure 30.13 in
Visibility 10.0 miles
Clouds Clear
Windchill -10 °F
Dew Point -13 °F
Humidity 89%
Rainfall 0.00 in
Snow Depth Not available.
7:50 AM 4:20 PM
Waxing Gibbous, 90% visible
METAR KCQM 110955Z AUTO 00000KT 10SM CLR M27/M29 A3013 RMK AO2
Pressure 30.13 in
Visibility 10.0 miles
Clouds Clear
Windchill -10 °F
Dew Point -13 °F
Humidity 89%
Rainfall 0.00 in
Snow Depth Not available.
7:50 AM 4:20 PM
Waxing Gibbous, 90% visible
METAR KCQM 110955Z AUTO 00000KT 10SM CLR M27/M29 A3013 RMK AO2

10-Day Weather Forecast

Almanac

Astronomy

Dec. 11, 2016 Rise Set
Actual Time
Civil Twilight
Nautical Twilight
Astronomical Twilight
Moon
Length of Visible Light
Length of Day
Tomorrow will be .
, % of the Moon is Illuminated

Today's Extremes

State Highs State Lows

Community

WunderPhotos

Upload Photos

1,956,704 photos uploaded!

WunderBlog® & News

Nearby

Air Quality

  Air Quality AQ Index Pollutant
Not available.

Snow Depth

Station Depth Elevation

Earthquake Activity

City Distance Mag. Time & Date
Minimum magnitude displayed is 2.5.

Coastal Water Temperatures

Place Temperature

Stations

Nearby Weather Stations

Station Location Temp. Windchill Dew Point Humidity Wind Precip. Elev Updated Type
                   

Watches & Warnings

There are currently no watches in effect.